sensor_id;sensor_type;location;lat;lon;timestamp;pressure;altitude;pressure_sealevel;temperature;humidity
56174;BME280;42058;52.308;20.924;2022-12-11T00:01:37;99818.63;;;-0.36;100.00
56174;BME280;42058;52.308;20.924;2022-12-11T00:04:03;99814.75;;;-0.36;100.00
56174;BME280;42058;52.308;20.924;2022-12-11T00:06:29;99814.75;;;-0.36;100.00
56174;BME280;42058;52.308;20.924;2022-12-11T00:08:55;99816.48;;;-0.36;100.00
56174;BME280;42058;52.308;20.924;2022-12-11T00:11:22;99814.30;;;-0.37;100.00
56174;BME280;42058;52.308;20.924;2022-12-11T00:13:49;99818.63;;;-0.36;100.00
56174;BME280;42058;52.308;20.924;2022-12-11T00:16:15;99817.75;;;-0.38;100.00
56174;BME280;42058;52.308;20.924;2022-12-11T00:18:41;99817.75;;;-0.38;100.00
56174;BME280;42058;52.308;20.924;2022-12-11T00:21:11;99821.62;;;-0.38;100.00
56174;BME280;42058;52.308;20.924;2022-12-11T00:23:38;99825.92;;;-0.37;100.00
56174;BME280;42058;52.308;20.924;2022-12-11T00:26:05;99821.59;;;-0.41;100.00
56174;BME280;42058;52.308;20.924;2022-12-11T00:28:35;99826.34;;;-0.39;100.00
56174;BME280;42058;52.308;20.924;2022-12-11T00:31:05;99825.92;;;-0.40;100.00
56174;BME280;42058;52.308;20.924;2022-12-11T00:33:33;99826.78;;;-0.40;100.00
56174;BME280;42058;52.308;20.924;2022-12-11T00:35:59;99828.91;;;-0.41;100.00
56174;BME280;42058;52.308;20.924;2022-12-11T00:38:26;99827.60;;;-0.42;100.00
56174;BME280;42058;52.308;20.924;2022-12-11T00:40:58;99818.14;;;-0.43;100.00
56174;BME280;42058;52.308;20.924;2022-12-11T00:43:24;99817.27;;;-0.45;100.00
56174;BME280;42058;52.308;20.924;2022-12-11T00:45:50;99809.51;;;-0.45;100.00
56174;BME280;42058;52.308;20.924;2022-12-11T00:48:16;99812.09;;;-0.45;100.00
56174;BME280;42058;52.308;20.924;2022-12-11T00:50:42;99815.55;;;-0.43;100.00
56174;BME280;42058;52.308;20.924;2022-12-11T00:53:08;99817.68;;;-0.44;100.00
56174;BME280;42058;52.308;20.924;2022-12-11T00:55:36;99816.84;;;-0.43;100.00
56174;BME280;42058;52.308;20.924;2022-12-11T00:58:04;99811.22;;;-0.44;100.00
56174;BME280;42058;52.308;20.924;2022-12-11T01:00:30;99809.91;;;-0.46;100.00
56174;BME280;42058;52.308;20.924;2022-12-11T01:02:57;99820.69;;;-0.46;100.00
56174;BME280;42058;52.308;20.924;2022-12-11T01:05:24;99816.80;;;-0.46;100.00
56174;BME280;42058;52.308;20.924;2022-12-11T01:07:50;99815.52;;;-0.46;100.00
56174;BME280;42058;52.308;20.924;2022-12-11T01:10:16;99819.84;;;-0.45;100.00
56174;BME280;42058;52.308;20.924;2022-12-11T01:12:56;99822.43;;;-0.45;100.00
56174;BME280;42058;52.308;20.924;2022-12-11T01:15:27;99828.44;;;-0.46;100.00
56174;BME280;42058;52.308;20.924;2022-12-11T01:17:54;99824.13;;;-0.49;100.00
56174;BME280;42058;52.308;20.924;2022-12-11T01:20:22;99816.80;;;-0.46;100.00
56174;BME280;42058;52.308;20.924;2022-12-11T01:22:55;99823.72;;;-0.45;100.00
56174;BME280;42058;52.308;20.924;2022-12-11T01:25:23;99806.47;;;-0.46;100.00
56174;BME280;42058;52.308;20.924;2022-12-11T01:27:52;99813.80;;;-0.44;100.00
56174;BME280;42058;52.308;20.924;2022-12-11T01:30:20;99803.05;;;-0.45;100.00
56174;BME280;42058;52.308;20.924;2022-12-11T01:32:48;99803.05;;;-0.45;100.00
56174;BME280;42058;52.308;20.924;2022-12-11T01:35:15;99796.55;;;-0.48;100.00
56174;BME280;42058;52.308;20.924;2022-12-11T01:37:42;99790.94;;;-0.51;100.00
56174;BME280;42058;52.308;20.924;2022-12-11T01:40:08;99792.22;;;-0.52;100.00
56174;BME280;42058;52.308;20.924;2022-12-11T01:42:38;99774.09;;;-0.55;100.00
56174;BME280;42058;52.308;20.924;2022-12-11T01:45:24;99769.78;;;-0.55;100.00
56174;BME280;42058;52.308;20.924;2022-12-11T01:48:03;99768.50;;;-0.56;100.00
56174;BME280;42058;52.308;20.924;2022-12-11T01:50:33;99772.37;;;-0.56;100.00
56174;BME280;42058;52.308;20.924;2022-12-11T01:53:03;99761.13;;;-0.59;100.00
56174;BME280;42058;52.308;20.924;2022-12-11T01:55:33;99758.57;;;-0.57;100.00
56174;BME280;42058;52.308;20.924;2022-12-11T01:58:01;99757.73;;;-0.56;100.00
56174;BME280;42058;52.308;20.924;2022-12-11T02:00:27;99762.04;;;-0.56;100.00
56174;BME280;42058;52.308;20.924;2022-12-11T02:02:54;99761.16;;;-0.57;100.00
56174;BME280;42058;52.308;20.924;2022-12-11T02:05:20;99762.04;;;-0.56;100.00
56174;BME280;42058;52.308;20.924;2022-12-11T02:07:53;99751.27;;;-0.56;100.00
56174;BME280;42058;52.308;20.924;2022-12-11T02:10:18;99747.81;;;-0.58;100.00
56174;BME280;42058;52.308;20.924;2022-12-11T02:13:00;99744.34;;;-0.59;100.00
56174;BME280;42058;52.308;20.924;2022-12-11T02:15:54;99741.35;;;-0.58;100.00
56174;BME280;42058;52.308;20.924;2022-12-11T02:18:28;99734.00;;;-0.59;100.00
56174;BME280;42058;52.308;20.924;2022-12-11T02:21:14;99736.13;;;-0.63;100.00
56174;BME280;42058;52.308;20.924;2022-12-11T02:24:03;99733.55;;;-0.66;100.00
56174;BME280;42058;52.308;20.924;2022-12-11T02:30:01;99734.79;;;-0.70;100.00
56174;BME280;42058;52.308;20.924;2022-12-11T02:32:55;99735.19;;;-0.74;100.00
56174;BME280;42058;52.308;20.924;2022-12-11T02:35:32;99729.98;;;-0.77;100.00
56174;BME280;42058;52.308;20.924;2022-12-11T02:38:09;99733.86;;;-0.80;100.00
56174;BME280;42058;52.308;20.924;2022-12-11T02:40:36;99741.58;;;-0.83;100.00
56174;BME280;42058;52.308;20.924;2022-12-11T02:43:06;99733.37;;;-0.87;100.00
56174;BME280;42058;52.308;20.924;2022-12-11T02:45:36;99740.24;;;-0.89;100.00
56174;BME280;42058;52.308;20.924;2022-12-11T02:48:05;99727.31;;;-0.91;100.00
56174;BME280;42058;52.308;20.924;2022-12-11T02:50:35;99724.75;;;-0.89;100.00
56174;BME280;42058;52.308;20.924;2022-12-11T02:53:05;99717.00;;;-0.89;100.00
56174;BME280;42058;52.308;20.924;2022-12-11T02:55:32;99716.55;;;-0.90;100.00
56174;BME280;42058;52.308;20.924;2022-12-11T02:58:21;99716.11;;;-0.93;100.00
56174;BME280;42058;52.308;20.924;2022-12-11T03:00:50;99712.21;;;-0.94;100.00
56174;BME280;42058;52.308;20.924;2022-12-11T03:03:16;99719.09;;;-0.97;100.00
56174;BME280;42058;52.308;20.924;2022-12-11T03:05:42;99716.05;;;-0.98;100.00
56174;BME280;42058;52.308;20.924;2022-12-11T03:08:11;99718.22;;;-0.95;100.00
56174;BME280;42058;52.308;20.924;2022-12-11T03:10:37;99723.83;;;-0.94;100.00
56174;BME280;42058;52.308;20.924;2022-12-11T03:13:03;99725.96;;;-0.95;100.00
56174;BME280;42058;52.308;20.924;2022-12-11T03:15:45;99721.23;;;-0.96;100.00
56174;BME280;42058;52.308;20.924;2022-12-11T03:26:14;99722.46;;;-1.04;100.00
56174;BME280;42058;52.308;20.924;2022-12-11T03:31:34;99725.46;;;-1.06;100.00
56174;BME280;42058;52.308;20.924;2022-12-11T03:34:08;99727.17;;;-1.05;100.00
56174;BME280;42058;52.308;20.924;2022-12-11T03:36:44;99724.59;;;-1.05;100.00
56174;BME280;42058;52.308;20.924;2022-12-11T03:39:18;99739.65;;;-1.04;100.00
56174;BME280;42058;52.308;20.924;2022-12-11T03:41:47;99735.79;;;-1.06;100.00
56174;BME280;42058;52.308;20.924;2022-12-11T03:44:15;99739.66;;;-1.06;100.00
56174;BME280;42058;52.308;20.924;2022-12-11T03:46:43;99735.34;;;-1.07;100.00
56174;BME280;42058;52.308;20.924;2022-12-11T03:49:16;99736.63;;;-1.07;100.00
56174;BME280;42058;52.308;20.924;2022-12-11T03:51:47;99730.17;;;-1.07;100.00
56174;BME280;42058;52.308;20.924;2022-12-11T03:54:16;99741.79;;;-1.07;100.00
56174;BME280;42058;52.308;20.924;2022-12-11T03:56:44;99740.89;;;-1.10;100.00
56174;BME280;42058;52.308;20.924;2022-12-11T03:59:11;99730.55;;;-1.12;100.00
56174;BME280;42058;52.308;20.924;2022-12-11T04:01:37;99733.55;;;-1.14;100.00
56174;BME280;42058;52.308;20.924;2022-12-11T04:04:04;99735.70;;;-1.15;100.00
56174;BME280;42058;52.308;20.924;2022-12-11T04:06:30;99732.67;;;-1.16;100.00
56174;BME280;42058;52.308;20.924;2022-12-11T04:08:56;99721.05;;;-1.16;100.00
56174;BME280;42058;52.308;20.924;2022-12-11T04:11:22;99722.80;;;-1.15;100.00
56174;BME280;42058;52.308;20.924;2022-12-11T04:14:06;99710.77;;;-1.13;100.00
56174;BME280;42058;52.308;20.924;2022-12-11T04:16:50;99708.58;;;-1.13;100.00
56174;BME280;42058;52.308;20.924;2022-12-11T04:19:18;99709.89;;;-1.12;100.00
56174;BME280;42058;52.308;20.924;2022-12-11T04:22:03;99706.87;;;-1.14;100.00
56174;BME280;42058;52.308;20.924;2022-12-11T04:24:48;99705.59;;;-1.13;100.00
56174;BME280;42058;52.308;20.924;2022-12-11T04:27:16;99704.31;;;-1.13;100.00
56174;BME280;42058;52.308;20.924;2022-12-11T04:29:44;99704.72;;;-1.15;100.00
56174;BME280;42058;52.308;20.924;2022-12-11T04:32:10;99707.70;;;-1.16;100.00
56174;BME280;42058;52.308;20.924;2022-12-11T04:34:36;99704.69;;;-1.18;100.00
56174;BME280;42058;52.308;20.924;2022-12-11T04:37:04;99708.12;;;-1.18;100.00
56174;BME280;42058;52.308;20.924;2022-12-11T04:39:31;99703.37;;;-1.20;100.00
56174;BME280;42058;52.308;20.924;2022-12-11T04:41:57;99702.06;;;-1.21;100.00
56174;BME280;42058;52.308;20.924;2022-12-11T04:44:23;99703.79;;;-1.22;100.00
56174;BME280;42058;52.308;20.924;2022-12-11T04:46:49;99702.48;;;-1.23;100.00
56174;BME280;42058;52.308;20.924;2022-12-11T04:49:15;99703.31;;;-1.24;100.00
56174;BME280;42058;52.308;20.924;2022-12-11T04:51:41;99708.91;;;-1.25;100.00
56174;BME280;42058;52.308;20.924;2022-12-11T04:54:07;99703.31;;;-1.27;100.00
56174;BME280;42058;52.308;20.924;2022-12-11T04:56:33;99698.56;;;-1.29;100.00
56174;BME280;42058;52.308;20.924;2022-12-11T04:58:59;99702.84;;;-1.31;100.00
56174;BME280;42058;52.308;20.924;2022-12-11T05:01:25;99692.48;;;-1.34;100.00
56174;BME280;42058;52.308;20.924;2022-12-11T05:03:51;99688.14;;;-1.37;100.00
56174;BME280;42058;52.308;20.924;2022-12-11T05:06:17;99682.98;;;-1.39;100.00
56174;BME280;42058;52.308;20.924;2022-12-11T05:08:44;99683.83;;;-1.40;100.00
56174;BME280;42058;52.308;20.924;2022-12-11T05:11:13;99676.92;;;-1.41;100.00
56174;BME280;42058;52.308;20.924;2022-12-11T05:13:40;99674.75;;;-1.43;100.00
56174;BME280;42058;52.308;20.924;2022-12-11T05:16:08;99665.70;;;-1.44;100.00
56174;BME280;42058;52.308;20.924;2022-12-11T05:18:35;99662.27;;;-1.45;100.00
56174;BME280;42058;52.308;20.924;2022-12-11T05:21:04;99657.98;;;-1.43;100.00
56174;BME280;42058;52.308;20.924;2022-12-11T05:23:32;99656.27;;;-1.44;100.00
56174;BME280;42058;52.308;20.924;2022-12-11T05:26:02;99653.25;;;-1.43;100.00
56174;BME280;42058;52.308;20.924;2022-12-11T05:28:32;99645.48;;;-1.45;100.00
56174;BME280;42058;52.308;20.924;2022-12-11T05:31:07;99641.61;;;-1.48;100.00
56174;BME280;42058;52.308;20.924;2022-12-11T05:33:31;99633.40;;;-1.50;100.00
56174;BME280;42058;52.308;20.924;2022-12-11T05:35:59;99645.86;;;-1.53;100.00
56174;BME280;42058;52.308;20.924;2022-12-11T05:38:26;99642.83;;;-1.54;100.00
56174;BME280;42058;52.308;20.924;2022-12-11T05:41:01;99639.41;;;-1.53;100.00
56174;BME280;42058;52.308;20.924;2022-12-11T05:43:31;99639.83;;;-1.52;100.00
56174;BME280;42058;52.308;20.924;2022-12-11T05:46:10;99642.43;;;-1.50;100.00
56174;BME280;42058;52.308;20.924;2022-12-11T05:48:39;99628.66;;;-1.52;100.00
56174;BME280;42058;52.308;20.924;2022-12-11T05:51:07;99631.25;;;-1.51;100.00
56174;BME280;42058;52.308;20.924;2022-12-11T05:53:39;99629.48;;;-1.53;100.00
56174;BME280;42058;52.308;20.924;2022-12-11T05:56:09;99623.05;;;-1.55;100.00
56174;BME280;42058;52.308;20.924;2022-12-11T05:58:36;99615.27;;;-1.58;100.00
56174;BME280;42058;52.308;20.924;2022-12-11T06:01:09;99614.82;;;-1.59;100.00
56174;BME280;42058;52.308;20.924;2022-12-11T06:03:38;99618.27;;;-1.60;100.00
56174;BME280;42058;52.308;20.924;2022-12-11T06:06:05;99619.56;;;-1.60;100.00
56174;BME280;42058;52.308;20.924;2022-12-11T06:08:35;99616.98;;;-1.60;100.00
56174;BME280;42058;52.308;20.924;2022-12-11T06:11:01;99618.27;;;-1.60;100.00
56174;BME280;42058;52.308;20.924;2022-12-11T06:13:27;99616.52;;;-1.61;100.00
56174;BME280;42058;52.308;20.924;2022-12-11T06:15:53;99623.41;;;-1.62;100.00
56174;BME280;42058;52.308;20.924;2022-12-11T06:18:20;99617.80;;;-1.63;100.00
56174;BME280;42058;52.308;20.924;2022-12-11T06:20:46;99620.78;;;-1.65;100.00
56174;BME280;42058;52.308;20.924;2022-12-11T06:23:12;99621.63;;;-1.67;100.00
56174;BME280;42058;52.308;20.924;2022-12-11T06:25:38;99616.89;;;-1.69;100.00
56174;BME280;42058;52.308;20.924;2022-12-11T06:28:05;99618.18;;;-1.69;100.00
56174;BME280;42058;52.308;20.924;2022-12-11T06:30:31;99625.42;;;-1.74;100.00
56174;BME280;42058;52.308;20.924;2022-12-11T06:32:57;99628.41;;;-1.76;100.00
56174;BME280;42058;52.308;20.924;2022-12-11T06:35:24;99632.25;;;-1.80;100.00
56174;BME280;42058;52.308;20.924;2022-12-11T06:37:51;99626.62;;;-1.83;100.00
56174;BME280;42058;52.308;20.924;2022-12-11T06:40:17;99628.75;;;-1.85;100.00
56174;BME280;42058;52.308;20.924;2022-12-11T06:42:43;99622.73;;;-1.86;100.00
56174;BME280;42058;52.308;20.924;2022-12-11T06:45:09;99623.16;;;-1.88;100.00
56174;BME280;42058;52.308;20.924;2022-12-11T06:47:36;99622.28;;;-1.87;100.00
56174;BME280;42058;52.308;20.924;2022-12-11T06:50:02;99622.24;;;-1.90;100.00
56174;BME280;42058;52.308;20.924;2022-12-11T06:52:28;99625.64;;;-1.94;100.00
56174;BME280;42058;52.308;20.924;2022-12-11T06:54:54;99623.06;;;-1.94;100.00
56174;BME280;42058;52.308;20.924;2022-12-11T06:57:20;99633.38;;;-1.94;100.00
56174;BME280;42058;52.308;20.924;2022-12-11T06:59:47;99628.22;;;-1.94;100.00
56174;BME280;42058;52.308;20.924;2022-12-11T07:02:14;99633.38;;;-1.94;100.00
56174;BME280;42058;52.308;20.924;2022-12-11T07:04:42;99635.94;;;-1.96;100.00
56174;BME280;42058;52.308;20.924;2022-12-11T07:07:09;99629.08;;;-1.94;100.00
56174;BME280;42058;52.308;20.924;2022-12-11T07:09:38;99632.52;;;-1.95;100.00
56174;BME280;42058;52.308;20.924;2022-12-11T07:12:05;99629.09;;;-1.95;100.00
56174;BME280;42058;52.308;20.924;2022-12-11T07:14:32;99629.09;;;-1.95;100.00
56174;BME280;42058;52.308;20.924;2022-12-11T07:16:58;99626.91;;;-1.96;100.00
56174;BME280;42058;52.308;20.924;2022-12-11T07:19:25;99620.89;;;-1.96;100.00
56174;BME280;42058;52.308;20.924;2022-12-11T07:21:51;99620.47;;;-1.96;100.00
56174;BME280;42058;52.308;20.924;2022-12-11T07:24:17;99623.48;;;-1.96;100.00
56174;BME280;42058;52.308;20.924;2022-12-11T07:26:44;99616.61;;;-1.97;100.00
56174;BME280;42058;52.308;20.924;2022-12-11T07:29:10;99623.89;;;-1.98;100.00
56174;BME280;42058;52.308;20.924;2022-12-11T07:31:36;99616.12;;;-2.00;100.00
56174;BME280;42058;52.308;20.924;2022-12-11T07:34:04;99609.66;;;-2.01;100.00
56174;BME280;42058;52.308;20.924;2022-12-11T07:36:32;99611.77;;;-2.05;100.00
56174;BME280;42058;52.308;20.924;2022-12-11T07:38:59;99605.77;;;-2.06;100.00
56174;BME280;42058;52.308;20.924;2022-12-11T07:41:26;99599.30;;;-2.07;100.00
56174;BME280;42058;52.308;20.924;2022-12-11T07:43:54;99604.02;;;-2.07;100.00
56174;BME280;42058;52.308;20.924;2022-12-11T07:46:23;99596.27;;;-2.08;100.00
56174;BME280;42058;52.308;20.924;2022-12-11T07:48:50;99596.23;;;-2.10;100.00
56174;BME280;42058;52.308;20.924;2022-12-11T07:51:19;99593.22;;;-2.13;100.00
56174;BME280;42058;52.308;20.924;2022-12-11T07:53:55;99592.34;;;-2.15;100.00
56174;BME280;42058;52.308;20.924;2022-12-11T07:56:24;99585.44;;;-2.16;100.00
56174;BME280;42058;52.308;20.924;2022-12-11T07:58:50;99581.16;;;-2.17;100.00
56174;BME280;42058;52.308;20.924;2022-12-11T08:01:19;99584.56;;;-2.18;100.00
56174;BME280;42058;52.308;20.924;2022-12-11T08:03:47;99588.41;;;-2.19;100.00
56174;BME280;42058;52.308;20.924;2022-12-11T08:06:13;99577.70;;;-2.19;100.00
56174;BME280;42058;52.308;20.924;2022-12-11T08:08:40;99589.30;;;-2.19;100.00
56174;BME280;42058;52.308;20.924;2022-12-11T08:11:10;99582.85;;;-2.19;100.00
56174;BME280;42058;52.308;20.924;2022-12-11T08:13:38;99593.16;;;-2.19;100.00
56174;BME280;42058;52.308;20.924;2022-12-11T08:16:09;99587.55;;;-2.20;100.00
56174;BME280;42058;52.308;20.924;2022-12-11T08:18:38;99584.12;;;-2.20;100.00
56174;BME280;42058;52.308;20.924;2022-12-11T08:21:22;99581.11;;;-2.20;100.00
56174;BME280;42058;52.308;20.924;2022-12-11T08:23:50;99582.39;;;-2.20;100.00
56174;BME280;42058;52.308;20.924;2022-12-11T08:26:23;99575.14;;;-2.17;100.00
56174;BME280;42058;52.308;20.924;2022-12-11T08:28:51;99573.42;;;-2.17;100.00
56174;BME280;42058;52.308;20.924;2022-12-11T08:31:18;99573.86;;;-2.14;100.00
56174;BME280;42058;52.308;20.924;2022-12-11T08:33:45;99570.88;;;-2.14;100.00
56174;BME280;42058;52.308;20.924;2022-12-11T08:36:16;99569.58;;;-2.15;100.00
56174;BME280;42058;52.308;20.924;2022-12-11T08:38:44;99561.82;;;-2.17;100.00
56174;BME280;42058;52.308;20.924;2022-12-11T08:41:18;99560.08;;;-2.18;100.00
56174;BME280;42058;52.308;20.924;2022-12-11T08:43:43;99563.92;;;-2.19;100.00
56174;BME280;42058;52.308;20.924;2022-12-11T08:46:11;99561.78;;;-2.20;100.00
56174;BME280;42058;52.308;20.924;2022-12-11T08:48:39;99555.77;;;-2.20;100.00
56174;BME280;42058;52.308;20.924;2022-12-11T08:51:13;99560.06;;;-2.21;100.00
56174;BME280;42058;52.308;20.924;2022-12-11T08:53:41;99557.03;;;-2.22;100.00
56174;BME280;42058;52.308;20.924;2022-12-11T08:56:17;99551.41;;;-2.26;100.00
56174;BME280;42058;52.308;20.924;2022-12-11T08:58:46;99559.55;;;-2.26;100.00
56174;BME280;42058;52.308;20.924;2022-12-11T09:01:15;99547.89;;;-2.33;100.00
56174;BME280;42058;52.308;20.924;2022-12-11T09:03:44;99547.89;;;-2.33;100.00
56174;BME280;42058;52.308;20.924;2022-12-11T09:06:12;99553.94;;;-2.29;100.00
56174;BME280;42058;52.308;20.924;2022-12-11T09:08:41;99551.41;;;-2.26;100.00
56174;BME280;42058;52.308;20.924;2022-12-11T09:11:11;99552.27;;;-2.25;100.00
56174;BME280;42058;52.308;20.924;2022-12-11T09:13:40;99545.80;;;-2.27;100.00
56174;BME280;42058;52.308;20.924;2022-12-11T09:16:09;99539.80;;;-2.27;100.00
56174;BME280;42058;52.308;20.924;2022-12-11T09:18:38;99529.92;;;-2.28;100.00
56174;BME280;42058;52.308;20.924;2022-12-11T09:21:07;99530.34;;;-2.27;100.00
56174;BME280;42058;52.308;20.924;2022-12-11T09:23:35;99524.30;;;-2.30;100.00
56174;BME280;42058;52.308;20.924;2022-12-11T09:26:06;99527.77;;;-2.27;100.00
56174;BME280;42058;52.308;20.924;2022-12-11T09:28:36;99519.22;;;-2.24;100.00
56174;BME280;42058;52.308;20.924;2022-12-11T09:31:21;99514.49;;;-2.23;100.00
56174;BME280;42058;52.308;20.924;2022-12-11T09:33:49;99502.45;;;-2.26;100.00
56174;BME280;42058;52.308;20.924;2022-12-11T09:36:17;99500.70;;;-2.27;100.00
56174;BME280;42058;52.308;20.924;2022-12-11T09:38:44;99504.58;;;-2.27;100.00
56174;BME280;42058;52.308;20.924;2022-12-11T09:47:06;99487.41;;;-2.28;100.00
56174;BME280;42058;52.308;20.924;2022-12-11T09:49:41;99485.23;;;-2.28;100.00
56174;BME280;42058;52.308;20.924;2022-12-11T09:52:24;99481.80;;;-2.29;100.00
56174;BME280;42058;52.308;20.924;2022-12-11T09:55:08;99472.81;;;-2.26;100.00
56174;BME280;42058;52.308;20.924;2022-12-11T09:57:56;99472.81;;;-2.26;100.00
56174;BME280;42058;52.308;20.924;2022-12-11T10:06:45;99460.30;;;-2.31;100.00
56174;BME280;42058;52.308;20.924;2022-12-11T10:12:41;99458.14;;;-2.33;100.00
56174;BME280;42058;52.308;20.924;2022-12-11T10:15:37;99461.18;;;-2.29;100.00
56174;BME280;42058;52.308;20.924;2022-12-11T10:18:10;99453.48;;;-2.26;100.00
56174;BME280;42058;52.308;20.924;2022-12-11T10:20:40;99443.18;;;-2.26;100.00
56174;BME280;42058;52.308;20.924;2022-12-11T10:23:15;99452.63;;;-2.25;100.00
56174;BME280;42058;52.308;20.924;2022-12-11T10:25:57;99439.73;;;-2.25;100.00
56174;BME280;42058;52.308;20.924;2022-12-11T10:28:19;99433.27;;;-2.26;100.00
56174;BME280;42058;52.308;20.924;2022-12-11T10:31:09;99435.45;;;-2.26;100.00
56174;BME280;42058;52.308;20.924;2022-12-11T10:34:01;99430.72;;;-2.25;100.00
56174;BME280;42058;52.308;20.924;2022-12-11T10:36:38;99430.72;;;-2.25;100.00
56174;BME280;42058;52.308;20.924;2022-12-11T10:39:17;99432.42;;;-2.27;100.00
56174;BME280;42058;52.308;20.924;2022-12-11T10:41:47;99424.27;;;-2.28;100.00
56174;BME280;42058;52.308;20.924;2022-12-11T10:44:17;99420.86;;;-2.24;100.00
56174;BME280;42058;52.308;20.924;2022-12-11T10:46:47;99412.75;;;-2.19;100.00
56174;BME280;42058;52.308;20.924;2022-12-11T10:49:24;99412.75;;;-2.19;100.00
56174;BME280;42058;52.308;20.924;2022-12-11T10:51:54;99408.89;;;-2.19;100.00
56174;BME280;42058;52.308;20.924;2022-12-11T10:57:06;99404.15;;;-2.18;100.00
56174;BME280;42058;52.308;20.924;2022-12-11T11:02:33;99375.34;;;-2.22;100.00
56174;BME280;42058;52.308;20.924;2022-12-11T11:05:29;99370.16;;;-2.25;100.00
56174;BME280;42058;52.308;20.924;2022-12-11T11:08:12;99375.38;;;-2.19;100.00
56174;BME280;42058;52.308;20.924;2022-12-11T11:13:25;99354.31;;;-2.16;100.00
56174;BME280;42058;52.308;20.924;2022-12-11T11:16:10;99364.66;;;-2.17;100.00
56174;BME280;42058;52.308;20.924;2022-12-11T11:18:34;99364.66;;;-2.17;100.00
56174;BME280;42058;52.308;20.924;2022-12-11T11:21:03;99356.05;;;-2.19;100.00
56174;BME280;42058;52.308;20.924;2022-12-11T11:23:33;99351.30;;;-2.19;100.00
56174;BME280;42058;52.308;20.924;2022-12-11T11:26:01;99353.48;;;-2.19;100.00
56174;BME280;42058;52.308;20.924;2022-12-11T11:28:36;99353.44;;;-2.22;100.00
56174;BME280;42058;52.308;20.924;2022-12-11T11:31:09;99350.02;;;-2.22;100.00
56174;BME280;42058;52.308;20.924;2022-12-11T11:36:32;99340.14;;;-2.20;100.00
56174;BME280;42058;52.308;20.924;2022-12-11T11:41:56;99337.56;;;-2.20;100.00
56174;BME280;42058;52.308;20.924;2022-12-11T11:44:33;99337.58;;;-2.18;100.00
56174;BME280;42058;52.308;20.924;2022-12-11T11:47:02;99331.55;;;-2.20;100.00
56174;BME280;42058;52.308;20.924;2022-12-11T11:49:52;99329.80;;;-2.23;100.00
56174;BME280;42058;52.308;20.924;2022-12-11T11:52:36;99332.38;;;-2.23;100.00
56174;BME280;42058;52.308;20.924;2022-12-11T11:55:19;99330.67;;;-2.24;100.00
56174;BME280;42058;52.308;20.924;2022-12-11T11:57:54;99324.66;;;-2.24;100.00
56174;BME280;42058;52.308;20.924;2022-12-11T12:00:25;99318.22;;;-2.24;100.00
56174;BME280;42058;52.308;20.924;2022-12-11T12:03:11;99320.38;;;-2.22;100.00
56174;BME280;42058;52.308;20.924;2022-12-11T12:05:54;99326.39;;;-2.22;100.00
56174;BME280;42058;52.308;20.924;2022-12-11T12:08:49;99330.70;;;-2.21;100.00
56174;BME280;42058;52.308;20.924;2022-12-11T12:14:18;99327.22;;;-2.23;100.00
56174;BME280;42058;52.308;20.924;2022-12-11T12:17:03;99330.23;;;-2.23;100.00
56174;BME280;42058;52.308;20.924;2022-12-11T12:19:58;99325.94;;;-2.23;100.00
56174;BME280;42058;52.308;20.924;2022-12-11T12:22:50;99325.50;;;-2.25;100.00
56174;BME280;42058;52.308;20.924;2022-12-11T12:25:44;99321.60;;;-2.28;100.00
56174;BME280;42058;52.308;20.924;2022-12-11T12:28:37;99321.60;;;-2.28;100.00
56174;BME280;42058;52.308;20.924;2022-12-11T12:37:33;99311.70;;;-2.32;100.00
56174;BME280;42058;52.308;20.924;2022-12-11T12:40:32;99303.09;;;-2.37;100.00
56174;BME280;42058;52.308;20.924;2022-12-11T12:46:41;99302.64;;;-2.38;100.00
56174;BME280;42058;52.308;20.924;2022-12-11T12:52:26;99292.72;;;-2.46;100.00
56174;BME280;42058;52.308;20.924;2022-12-11T12:55:19;99286.63;;;-2.55;100.00
56174;BME280;42058;52.308;20.924;2022-12-11T13:00:34;99284.93;;;-2.53;100.00
56174;BME280;42058;52.308;20.924;2022-12-11T13:03:27;99286.20;;;-2.54;100.00
56174;BME280;42058;52.308;20.924;2022-12-11T13:06:02;99283.61;;;-2.56;100.00
56174;BME280;42058;52.308;20.924;2022-12-11T13:08:41;99288.34;;;-2.57;100.00
56174;BME280;42058;52.308;20.924;2022-12-11T13:11:13;99292.20;;;-2.57;100.00
56174;BME280;42058;52.308;20.924;2022-12-11T13:13:44;99290.91;;;-2.57;100.00
56174;BME280;42058;52.308;20.924;2022-12-11T13:27:39;99278.00;;;-2.60;100.00
56174;BME280;42058;52.308;20.924;2022-12-11T13:33:07;99274.16;;;-2.58;100.00
56174;BME280;42058;52.308;20.924;2022-12-11T13:35:38;99280.16;;;-2.58;100.00
56174;BME280;42058;52.308;20.924;2022-12-11T13:38:07;99285.31;;;-2.61;100.00
56174;BME280;42058;52.308;20.924;2022-12-11T13:40:43;99295.21;;;-2.57;100.00
56174;BME280;42058;52.308;20.924;2022-12-11T13:43:27;99286.18;;;-2.59;100.00
56174;BME280;42058;52.308;20.924;2022-12-11T13:45:59;99289.16;;;-2.59;100.00
56174;BME280;42058;52.308;20.924;2022-12-11T13:48:37;99289.98;;;-2.63;100.00
56174;BME280;42058;52.308;20.924;2022-12-11T13:51:06;99289.98;;;-2.63;100.00
56174;BME280;42058;52.308;20.924;2022-12-11T13:53:32;99283.97;;;-2.65;100.00
56174;BME280;42058;52.308;20.924;2022-12-11T13:56:05;99277.96;;;-2.66;100.00
56174;BME280;42058;52.308;20.924;2022-12-11T13:58:36;99271.94;;;-2.68;100.00
56174;BME280;42058;52.308;20.924;2022-12-11T14:01:06;99274.97;;;-2.64;100.00
56174;BME280;42058;52.308;20.924;2022-12-11T14:03:42;99274.95;;;-2.65;100.00
56174;BME280;42058;52.308;20.924;2022-12-11T14:06:10;99276.24;;;-2.65;100.00
56174;BME280;42058;52.308;20.924;2022-12-11T14:08:39;99281.39;;;-2.65;100.00
56174;BME280;42058;52.308;20.924;2022-12-11T14:11:07;99276.24;;;-2.65;100.00
56174;BME280;42058;52.308;20.924;2022-12-11T14:13:35;99274.52;;;-2.65;100.00
56174;BME280;42058;52.308;20.924;2022-12-11T14:16:05;99272.80;;;-2.67;100.00
56174;BME280;42058;52.308;20.924;2022-12-11T14:18:34;99269.78;;;-2.67;100.00